createdAt,value
2018-09-16T00:01:00.221Z,17.00
2018-09-16T00:03:27.340Z,17.13
2018-09-16T00:05:54.460Z,16.50
2018-09-16T00:08:21.730Z,18.57
2018-09-16T00:10:48.901Z,18.23
2018-09-16T00:13:16.487Z,18.30
2018-09-16T00:15:43.653Z,17.93
2018-09-16T00:18:10.785Z,17.37
2018-09-16T00:20:37.951Z,18.17
2018-09-16T00:23:05.061Z,18.30
2018-09-16T00:25:32.159Z,17.83
2018-09-16T00:27:59.257Z,17.60
2018-09-16T00:30:26.348Z,18.83
2018-09-16T00:32:53.440Z,19.20
2018-09-16T00:35:20.592Z,18.30
2018-09-16T00:37:47.695Z,18.13
2018-09-16T00:40:14.800Z,17.27
2018-09-16T00:42:41.931Z,18.27
2018-09-16T00:45:09.528Z,18.00
2018-09-16T00:47:36.825Z,17.33
2018-09-16T00:50:04.004Z,17.37
2018-09-16T00:52:31.107Z,17.23
2018-09-16T00:54:58.225Z,17.80
2018-09-16T00:57:25.352Z,17.00
2018-09-16T00:59:52.452Z,17.50
2018-09-16T01:02:19.698Z,18.53
2018-09-16T01:04:46.787Z,17.73
2018-09-16T01:07:13.884Z,16.17
2018-09-16T01:09:40.987Z,16.23
2018-09-16T01:12:08.134Z,18.63
2018-09-16T01:14:35.273Z,16.83
2018-09-16T01:17:02.419Z,16.97
2018-09-16T01:19:29.860Z,15.60
2018-09-16T01:21:56.984Z,16.30
2018-09-16T01:24:24.128Z,16.03
2018-09-16T01:26:51.293Z,16.37
2018-09-16T01:29:18.379Z,15.20
2018-09-16T01:31:45.483Z,15.63
2018-09-16T01:34:12.643Z,15.70
2018-09-16T01:36:39.757Z,17.00
2018-09-16T01:39:06.996Z,15.63
2018-09-16T01:41:34.364Z,15.37
2018-09-16T01:44:01.464Z,15.27
2018-09-16T01:46:28.574Z,15.13
2018-09-16T01:48:55.692Z,14.97
2018-09-16T01:51:22.812Z,15.23
2018-09-16T01:53:49.983Z,14.20
2018-09-16T01:56:17.089Z,14.90
2018-09-16T01:58:44.179Z,15.63
2018-09-16T02:01:11.941Z,15.97
2018-09-16T02:03:39.196Z,15.40
2018-09-16T02:06:06.385Z,15.37
2018-09-16T02:08:33.506Z,16.13
2018-09-16T02:11:00.612Z,15.73
2018-09-16T02:13:27.732Z,15.50
2018-09-16T02:15:54.848Z,14.93
2018-09-16T02:18:21.968Z,14.73
2018-09-16T02:20:49.112Z,15.10
2018-09-16T02:23:16.221Z,14.57
2018-09-16T02:25:43.492Z,14.23
2018-09-16T02:28:11.092Z,16.20
2018-09-16T02:30:38.258Z,15.13
2018-09-16T02:33:05.415Z,16.17
2018-09-16T02:35:32.552Z,15.00
2018-09-16T02:37:59.739Z,15.13
2018-09-16T02:40:27.020Z,15.10
2018-09-16T02:42:54.152Z,14.50
2018-09-16T02:45:21.264Z,15.23
2018-09-16T02:47:48.399Z,14.73
2018-09-16T02:50:15.532Z,15.00
2018-09-16T02:52:42.667Z,14.20
2018-09-16T02:55:09.916Z,14.33
2018-09-16T02:57:37.024Z,13.50
2018-09-16T03:00:04.322Z,14.50
2018-09-16T03:02:31.430Z,14.13
2018-09-16T03:04:58.539Z,13.63
2018-09-16T03:07:25.651Z,14.10
2018-09-16T03:09:52.798Z,13.23
2018-09-16T03:12:19.873Z,12.97
2018-09-16T03:14:46.988Z,13.30
2018-09-16T03:17:14.127Z,13.00
2018-09-16T03:19:41.216Z,13.73
2018-09-16T03:22:08.337Z,13.40
2018-09-16T03:24:35.451Z,12.73
2018-09-16T03:27:02.609Z,13.30
2018-09-16T03:29:29.748Z,13.10
2018-09-16T03:31:56.852Z,12.97
2018-09-16T03:34:23.961Z,13.00
2018-09-16T03:36:51.060Z,12.90
2018-09-16T03:39:18.156Z,12.77
2018-09-16T03:41:45.259Z,12.30
2018-09-16T03:44:12.363Z,12.30
2018-09-16T03:46:39.536Z,12.00
2018-09-16T03:49:06.628Z,12.73
2018-09-16T03:51:33.717Z,11.63
2018-09-16T03:54:00.804Z,12.17
2018-09-16T03:56:27.917Z,11.33
2018-09-16T03:58:55.078Z,11.63
2018-09-16T04:01:22.157Z,11.53
2018-09-16T04:03:49.426Z,11.93
2018-09-16T04:06:16.600Z,12.37
2018-09-16T04:08:43.705Z,10.77
2018-09-16T04:11:10.804Z,11.67
2018-09-16T04:13:38.017Z,11.50
2018-09-16T04:16:05.148Z,11.67
2018-09-16T04:18:32.312Z,10.97
2018-09-16T04:20:59.427Z,11.30
2018-09-16T04:23:31.141Z,11.93
2018-09-16T04:25:58.268Z,11.10
2018-09-16T04:28:25.377Z,11.53
2018-09-16T04:30:52.467Z,11.80
2018-09-16T04:33:19.615Z,11.20
2018-09-16T04:35:46.704Z,11.70
2018-09-16T04:38:13.792Z,12.43
2018-09-16T04:40:40.933Z,11.73
2018-09-16T04:43:08.064Z,11.23
2018-09-16T04:45:35.239Z,12.03
2018-09-16T04:48:02.371Z,11.13
2018-09-16T04:50:29.460Z,11.23
2018-09-16T04:52:56.560Z,11.03
2018-09-16T04:55:23.660Z,10.80
2018-09-16T04:57:50.760Z,10.47
2018-09-16T05:00:17.876Z,11.00
2018-09-16T05:02:44.999Z,10.97
2018-09-16T05:05:12.096Z,10.83
2018-09-16T05:07:39.200Z,10.50
2018-09-16T05:10:06.404Z,11.20
2018-09-16T05:12:33.490Z,11.13
2018-09-16T05:15:00.649Z,9.53
2018-09-16T05:17:27.728Z,10.43
2018-09-16T05:19:54.812Z,10.50
2018-09-16T05:22:21.915Z,10.60
2018-09-16T05:24:49.014Z,11.07
2018-09-16T05:27:16.104Z,11.20
2018-09-16T05:29:43.200Z,9.83
2018-09-16T05:32:10.309Z,10.77
2018-09-16T05:34:37.475Z,10.80
2018-09-16T05:37:04.885Z,10.63
2018-09-16T05:39:32.016Z,10.40
2018-09-16T05:41:59.145Z,11.17
2018-09-16T05:44:26.262Z,9.80
2018-09-16T05:46:53.401Z,10.70
2018-09-16T05:49:20.532Z,11.50
2018-09-16T05:51:47.682Z,10.03
2018-09-16T05:54:14.819Z,10.10
2018-09-16T05:56:41.949Z,10.83
2018-09-16T05:59:09.089Z,10.43
2018-09-16T06:01:36.171Z,9.33
2018-09-16T06:04:03.352Z,9.97
2018-09-16T06:06:30.468Z,9.77
2018-09-16T06:08:57.580Z,10.93
2018-09-16T06:11:24.697Z,10.07
2018-09-16T06:13:51.829Z,9.87
2018-09-16T06:16:18.981Z,9.63
2018-09-16T06:18:46.101Z,9.80
2018-09-16T06:21:13.240Z,10.33
2018-09-16T06:23:40.336Z,9.93
2018-09-16T06:26:07.432Z,9.73
2018-09-16T06:28:34.571Z,9.67
2018-09-16T06:31:01.684Z,10.20
2018-09-16T06:33:28.792Z,9.63
2018-09-16T06:35:55.917Z,9.83
2018-09-16T06:38:23.117Z,9.63
2018-09-16T06:40:50.237Z,9.70
2018-09-16T06:43:17.375Z,9.33
2018-09-16T06:45:44.521Z,9.60
2018-09-16T06:48:11.700Z,8.83
2018-09-16T06:50:38.839Z,9.47
2018-09-16T06:53:06.020Z,9.20
2018-09-16T06:55:33.155Z,9.17
2018-09-16T06:58:00.256Z,9.03
2018-09-16T07:00:27.363Z,8.23
2018-09-16T07:02:54.465Z,7.90
2018-09-16T07:05:21.560Z,7.97
2018-09-16T07:07:48.673Z,7.83
2018-09-16T07:10:15.820Z,7.50
2018-09-16T07:12:42.924Z,8.03
2018-09-16T07:15:10.064Z,7.43
2018-09-16T07:17:37.180Z,6.93
2018-09-16T07:20:04.797Z,7.17
2018-09-16T07:22:31.892Z,7.37
2018-09-16T07:24:59.004Z,6.90
2018-09-16T07:27:26.131Z,6.70
2018-09-16T07:29:53.200Z,6.47
2018-09-16T07:32:20.288Z,6.20
2018-09-16T07:34:47.411Z,5.97
2018-09-16T07:37:14.574Z,6.00
2018-09-16T07:39:41.695Z,5.63
2018-09-16T07:42:08.804Z,5.60
2018-09-16T07:44:35.902Z,5.47
2018-09-16T07:47:03.024Z,5.47
2018-09-16T07:49:30.124Z,5.20
2018-09-16T07:51:57.223Z,5.20
2018-09-16T07:54:24.337Z,5.30
2018-09-16T07:56:51.632Z,5.30
2018-09-16T07:59:18.804Z,5.27
2018-09-16T08:01:45.902Z,5.10
2018-09-16T08:04:12.988Z,5.50
2018-09-16T08:06:40.083Z,4.70
2018-09-16T08:09:07.420Z,4.80
2018-09-16T08:11:34.543Z,4.57
2018-09-16T08:14:01.682Z,4.80
2018-09-16T08:16:28.792Z,4.03
2018-09-16T08:18:55.904Z,4.13
2018-09-16T08:21:23.118Z,4.20
2018-09-16T08:23:50.244Z,3.83
2018-09-16T08:26:17.357Z,3.80
2018-09-16T08:28:44.481Z,3.23
2018-09-16T08:31:11.577Z,2.90
2018-09-16T08:33:38.668Z,3.07
2018-09-16T08:36:05.836Z,3.03
2018-09-16T08:38:32.920Z,2.80
2018-09-16T08:41:00.016Z,2.77
2018-09-16T08:43:27.116Z,2.70
2018-09-16T08:45:54.256Z,2.23
2018-09-16T08:48:21.485Z,2.47
2018-09-16T08:50:48.583Z,2.00
2018-09-16T08:53:15.914Z,2.33
2018-09-16T08:55:43.045Z,2.27
2018-09-16T08:58:10.258Z,2.20
2018-09-16T09:00:37.258Z,2.40
2018-09-16T09:03:04.432Z,2.03
2018-09-16T09:05:31.604Z,2.10
2018-09-16T09:07:58.705Z,2.20
2018-09-16T09:10:25.804Z,1.90
2018-09-16T09:12:52.909Z,2.10
2018-09-16T09:15:20.042Z,2.40
2018-09-16T09:17:47.145Z,2.07
2018-09-16T09:20:14.266Z,1.93
2018-09-16T09:22:41.381Z,1.90
2018-09-16T09:25:08.504Z,1.70
2018-09-16T09:27:35.624Z,1.73
2018-09-16T09:30:02.799Z,1.87
2018-09-16T09:32:29.935Z,1.40
2018-09-16T09:34:57.068Z,1.70
2018-09-16T09:37:24.196Z,1.47
2018-09-16T09:39:51.317Z,1.60
2018-09-16T09:42:18.468Z,1.67
2018-09-16T09:44:45.590Z,1.93
2018-09-16T09:47:12.733Z,1.70
2018-09-16T09:49:39.865Z,1.70
2018-09-16T09:52:06.991Z,1.67
2018-09-16T09:54:34.108Z,1.60
2018-09-16T09:57:01.218Z,1.90
2018-09-16T09:59:28.393Z,1.73
2018-09-16T10:01:55.492Z,2.10
2018-09-16T10:04:22.867Z,1.60
2018-09-16T10:06:50.120Z,1.60
2018-09-16T10:09:17.240Z,1.60
2018-09-16T10:11:44.369Z,1.80
2018-09-16T10:14:11.523Z,1.90
2018-09-16T10:16:38.644Z,1.90
2018-09-16T10:19:05.900Z,1.67
2018-09-16T10:21:33.044Z,1.60
2018-09-16T10:24:00.191Z,1.63
2018-09-16T10:26:27.316Z,1.70
2018-09-16T10:28:54.441Z,1.80
2018-09-16T10:31:21.584Z,1.87
2018-09-16T10:33:48.706Z,1.80
2018-09-16T10:36:15.796Z,1.70
2018-09-16T10:38:42.937Z,1.63
2018-09-16T10:41:10.012Z,2.00
2018-09-16T10:43:37.336Z,1.33
2018-09-16T10:46:04.429Z,1.60
2018-09-16T10:48:31.540Z,1.73
2018-09-16T10:50:58.660Z,1.70
2018-09-16T10:53:25.769Z,1.53
2018-09-16T10:55:53.005Z,1.40
2018-09-16T10:58:20.161Z,1.57
2018-09-16T11:00:47.260Z,1.90
2018-09-16T11:03:14.397Z,1.40
2018-09-16T11:05:41.504Z,1.70
2018-09-16T11:08:08.664Z,1.63
2018-09-16T11:10:35.777Z,1.87
2018-09-16T11:13:02.907Z,1.40
2018-09-16T11:15:30.003Z,1.40
2018-09-16T11:17:57.212Z,1.73
2018-09-16T11:20:24.356Z,1.60
2018-09-16T11:22:51.449Z,1.70
2018-09-16T11:25:18.596Z,1.33
2018-09-16T11:27:45.748Z,1.40
2018-09-16T11:30:15.334Z,1.50
2018-09-16T11:32:42.536Z,1.57
2018-09-16T11:35:09.660Z,1.63
2018-09-16T11:37:36.790Z,1.50
2018-09-16T11:40:03.916Z,1.30
2018-09-16T11:42:31.045Z,1.50
2018-09-16T11:44:58.159Z,1.60
2018-09-16T11:47:25.694Z,1.50
2018-09-16T11:49:52.844Z,1.37
2018-09-16T11:52:19.986Z,1.97
2018-09-16T11:54:47.148Z,1.80
2018-09-16T11:57:14.288Z,1.80
2018-09-16T11:59:41.444Z,1.53
2018-09-16T12:02:08.715Z,1.40
2018-09-16T12:04:35.772Z,1.50
2018-09-16T12:07:02.929Z,1.80
2018-09-16T12:09:30.025Z,1.73
2018-09-16T12:11:57.157Z,1.73
2018-09-16T12:14:24.300Z,1.70
2018-09-16T12:16:51.436Z,1.77
2018-09-16T12:19:18.557Z,2.00
2018-09-16T12:21:45.735Z,1.73
2018-09-16T12:24:12.877Z,1.70
2018-09-16T12:26:40.016Z,1.63
2018-09-16T12:29:07.168Z,1.87
2018-09-16T12:31:34.284Z,1.50
2018-09-16T12:34:01.370Z,2.00
2018-09-16T12:36:28.480Z,2.00
2018-09-16T12:38:55.612Z,1.80
2018-09-16T12:41:22.700Z,1.70
2018-09-16T12:43:49.811Z,1.50
2018-09-16T12:46:16.924Z,1.70
2018-09-16T12:48:44.048Z,1.90
2018-09-16T12:51:11.225Z,1.53
2018-09-16T12:53:38.342Z,1.70
2018-09-16T12:56:05.560Z,1.70
2018-09-16T12:58:32.737Z,1.50
2018-09-16T13:00:59.860Z,1.77
2018-09-16T13:03:26.980Z,1.67
2018-09-16T13:05:54.164Z,1.80
2018-09-16T13:08:21.284Z,2.03
2018-09-16T13:10:48.396Z,1.70
2018-09-16T13:13:15.539Z,1.77
2018-09-16T13:15:42.635Z,1.60
2018-09-16T13:18:09.742Z,1.60
2018-09-16T13:20:36.876Z,1.90
2018-09-16T13:23:04.016Z,2.00
2018-09-16T13:25:31.129Z,1.57
2018-09-16T13:27:58.225Z,1.70
2018-09-16T13:30:25.344Z,1.90
2018-09-16T13:32:52.516Z,1.70
2018-09-16T13:35:19.660Z,1.63
2018-09-16T13:37:46.782Z,1.70
2018-09-16T13:40:13.920Z,1.97
2018-09-16T13:42:41.046Z,1.70
2018-09-16T13:45:08.212Z,1.70
2018-09-16T13:47:35.360Z,1.60
2018-09-16T13:50:02.537Z,1.50
2018-09-16T13:52:29.648Z,1.77
2018-09-16T13:54:56.755Z,1.63
2018-09-16T13:57:23.904Z,1.50
2018-09-16T13:59:51.024Z,1.60
2018-09-16T14:02:18.185Z,1.90
2018-09-16T14:04:45.289Z,1.40
2018-09-16T14:07:12.399Z,1.77
2018-09-16T14:09:39.575Z,1.63
2018-09-16T14:12:06.660Z,1.70
2018-09-16T14:14:33.764Z,1.60
2018-09-16T14:17:00.880Z,1.80
2018-09-16T14:19:28.012Z,1.70
2018-09-16T14:21:55.145Z,1.70
2018-09-16T14:24:22.257Z,1.53
2018-09-16T14:26:49.376Z,1.60
2018-09-16T14:29:16.508Z,1.73
2018-09-16T14:31:43.633Z,1.70
2018-09-16T14:34:10.750Z,1.60
2018-09-16T14:36:38.044Z,1.70
2018-09-16T14:39:05.717Z,1.90
2018-09-16T14:41:32.872Z,1.57
2018-09-16T14:44:00.021Z,1.80
2018-09-16T14:46:27.136Z,1.53
2018-09-16T14:48:54.248Z,1.80
2018-09-16T14:51:21.412Z,1.63
2018-09-16T14:53:48.477Z,1.70
2018-09-16T14:56:15.569Z,1.40
2018-09-16T14:58:42.698Z,1.93
2018-09-16T15:01:09.808Z,1.70
2018-09-16T15:03:36.919Z,1.80
2018-09-16T15:06:04.037Z,1.77
2018-09-16T15:08:31.176Z,1.60
2018-09-16T15:10:58.317Z,1.50
2018-09-16T15:13:25.444Z,1.90
2018-09-16T15:15:52.596Z,2.20
2018-09-16T15:18:19.809Z,2.40
2018-09-16T15:20:46.941Z,1.80
2018-09-16T15:23:14.078Z,1.90
2018-09-16T15:25:41.216Z,1.70
2018-09-16T15:28:08.352Z,1.70
2018-09-16T15:30:35.496Z,1.57
2018-09-16T15:33:02.642Z,1.90
2018-09-16T15:35:29.772Z,1.97
2018-09-16T15:37:56.900Z,1.90
2018-09-16T15:40:24.044Z,1.90
2018-09-16T15:42:51.171Z,1.93
2018-09-16T15:45:18.357Z,1.80
2018-09-16T15:47:45.493Z,1.63
2018-09-16T15:50:12.740Z,1.70
2018-09-16T15:52:39.882Z,1.97
2018-09-16T15:55:07.045Z,2.20
2018-09-16T15:57:34.125Z,2.10
2018-09-16T16:00:01.262Z,2.50
2018-09-16T16:02:28.364Z,2.20
2018-09-16T16:04:55.469Z,1.93
2018-09-16T16:07:22.572Z,1.90
2018-09-16T16:09:49.676Z,2.00
2018-09-16T16:12:16.785Z,2.27
2018-09-16T16:14:44.733Z,2.43
2018-09-16T16:17:11.864Z,1.90
2018-09-16T16:19:38.956Z,1.80
2018-09-16T16:22:06.068Z,1.83
2018-09-16T16:24:33.163Z,2.00
2018-09-16T16:27:00.284Z,2.20
2018-09-16T16:29:27.413Z,2.30
2018-09-16T16:31:54.565Z,2.60
2018-09-16T16:34:21.732Z,2.20
2018-09-16T16:36:49.636Z,2.50
2018-09-16T16:39:16.768Z,2.70
2018-09-16T16:41:43.901Z,2.37
2018-09-16T16:44:11.047Z,2.50
2018-09-16T16:46:38.195Z,2.67
2018-09-16T16:49:05.362Z,2.80
2018-09-16T16:51:32.488Z,2.57
2018-09-16T16:53:59.636Z,18.13
2018-09-16T16:56:26.779Z,22.30
2018-09-16T16:58:53.976Z,11.00
2018-09-16T17:01:21.249Z,8.10
2018-09-16T17:03:48.364Z,7.83
2018-09-16T17:06:15.476Z,10.87
2018-09-16T17:08:42.596Z,8.33
2018-09-16T17:11:09.885Z,5.27
2018-09-16T17:13:37.004Z,4.97
2018-09-16T17:16:04.188Z,4.07
2018-09-16T17:18:31.297Z,4.50
2018-09-16T17:20:58.406Z,4.43
2018-09-16T17:23:25.563Z,4.50
2018-09-16T17:25:52.816Z,5.57
2018-09-16T17:28:21.701Z,10.78
2018-09-16T17:30:48.838Z,10.53
2018-09-16T17:33:15.964Z,9.28
2018-09-16T17:35:43.139Z,6.87
2018-09-16T17:38:10.266Z,6.27
2018-09-16T17:40:37.392Z,5.97
2018-09-16T17:43:04.597Z,6.20
2018-09-16T17:45:31.701Z,6.57
2018-09-16T17:47:58.806Z,7.07
2018-09-16T17:50:25.945Z,6.80
2018-09-16T17:52:53.056Z,7.00
2018-09-16T17:55:20.192Z,7.53
2018-09-16T17:57:47.304Z,8.47
2018-09-16T18:00:14.612Z,6.63
2018-09-16T18:02:41.729Z,6.30
2018-09-16T18:05:08.923Z,5.53
2018-09-16T18:07:36.048Z,5.13
2018-09-16T18:10:03.208Z,4.93
2018-09-16T18:12:30.338Z,5.40
2018-09-16T18:14:57.454Z,4.30
2018-09-16T18:17:24.590Z,4.00
2018-09-16T18:19:51.716Z,4.27
2018-09-16T18:22:18.897Z,4.10
2018-09-16T18:24:46.012Z,4.13
2018-09-16T18:27:13.577Z,4.23
2018-09-16T18:29:40.781Z,3.80
2018-09-16T18:32:07.828Z,4.30
2018-09-16T18:34:34.997Z,5.53
2018-09-16T18:37:02.108Z,5.53
2018-09-16T18:39:29.262Z,7.87
2018-09-16T18:41:56.392Z,7.50
2018-09-16T18:44:23.524Z,7.33
2018-09-16T18:46:50.649Z,7.30
2018-09-16T18:49:17.757Z,7.20
2018-09-16T18:51:44.876Z,6.80
2018-09-16T18:54:12.004Z,7.37
2018-09-16T18:56:39.119Z,6.63
2018-09-16T18:59:06.257Z,5.80
2018-09-16T19:01:33.474Z,5.70
2018-09-16T19:04:00.590Z,6.17
2018-09-16T19:06:27.698Z,5.70
2018-09-16T19:08:54.835Z,5.93
2018-09-16T19:11:21.956Z,6.27
2018-09-16T19:13:49.064Z,5.83
2018-09-16T19:16:16.280Z,5.53
2018-09-16T19:18:43.424Z,5.47
2018-09-16T19:21:10.536Z,5.20
2018-09-16T19:23:37.640Z,4.93
2018-09-16T19:26:04.848Z,4.90
2018-09-16T19:28:32.167Z,4.73
2018-09-16T19:30:59.340Z,5.00
2018-09-16T19:33:26.599Z,4.57
2018-09-16T19:35:53.760Z,4.43
2018-09-16T19:38:20.892Z,5.03
2018-09-16T19:40:48.031Z,4.93
2018-09-16T19:43:15.166Z,4.97
2018-09-16T19:45:42.284Z,5.10
2018-09-16T19:48:09.420Z,6.97
2018-09-16T19:50:36.616Z,5.43
2018-09-16T19:53:04.141Z,5.77
2018-09-16T19:55:31.304Z,5.47
2018-09-16T19:57:58.433Z,5.83
2018-09-16T20:00:25.547Z,4.77
2018-09-16T20:02:52.673Z,5.27
2018-09-16T20:05:19.801Z,5.00
2018-09-16T20:07:46.964Z,5.67
2018-09-16T20:10:14.085Z,6.10
2018-09-16T20:12:41.197Z,6.03
2018-09-16T20:15:08.344Z,5.47
2018-09-16T20:17:35.888Z,5.43
2018-09-16T20:20:03.037Z,5.47
2018-09-16T20:22:30.133Z,4.87
2018-09-16T20:24:57.314Z,5.30
2018-09-16T20:27:24.427Z,4.90
2018-09-16T20:29:51.559Z,5.17
2018-09-16T20:32:18.648Z,5.33
2018-09-16T20:34:45.811Z,5.20
2018-09-16T20:37:13.007Z,5.33
2018-09-16T20:39:40.092Z,5.33
2018-09-16T20:42:07.238Z,5.30
2018-09-16T20:44:34.372Z,5.10
2018-09-16T20:47:01.531Z,5.80
2018-09-16T20:49:28.632Z,6.07
2018-09-16T20:51:55.751Z,6.07
2018-09-16T20:54:22.876Z,6.13
2018-09-16T20:56:50.008Z,5.73
2018-09-16T20:59:17.143Z,6.40
2018-09-16T21:01:44.276Z,5.97
2018-09-16T21:04:11.417Z,5.40
2018-09-16T21:06:38.584Z,6.10
2018-09-16T21:09:07.621Z,6.00
2018-09-16T21:11:34.781Z,6.07
2018-09-16T21:14:01.892Z,5.70
2018-09-16T21:16:28.992Z,6.43
2018-09-16T21:18:56.095Z,6.77
2018-09-16T21:21:23.195Z,6.23
2018-09-16T21:23:50.288Z,6.63
2018-09-16T21:26:17.483Z,6.90
2018-09-16T21:28:44.516Z,6.90
2018-09-16T21:31:11.652Z,7.80
2018-09-16T21:33:38.757Z,8.77
2018-09-16T21:36:05.920Z,7.50
2018-09-16T21:38:33.020Z,8.00
2018-09-16T21:41:00.125Z,7.60
2018-09-16T21:43:27.224Z,7.00
2018-09-16T21:45:54.349Z,7.37
2018-09-16T21:48:21.504Z,6.77
2018-09-16T21:50:48.620Z,7.23
2018-09-16T21:53:15.736Z,6.60
2018-09-16T21:55:42.843Z,7.47
2018-09-16T21:58:09.944Z,6.73
2018-09-16T22:00:37.104Z,6.93
2018-09-16T22:03:04.220Z,7.13
2018-09-16T22:05:31.335Z,6.83
2018-09-16T22:07:58.476Z,7.00
2018-09-16T22:10:25.618Z,6.53
2018-09-16T22:12:52.771Z,6.33
2018-09-16T22:15:19.953Z,6.23
2018-09-16T22:17:47.111Z,6.83
2018-09-16T22:20:14.278Z,6.27
2018-09-16T22:22:41.584Z,6.67
2018-09-16T22:25:09.224Z,7.00
2018-09-16T22:27:36.595Z,6.43
2018-09-16T22:30:06.754Z,6.53
2018-09-16T22:32:33.955Z,6.03
2018-09-16T22:35:01.119Z,6.53
2018-09-16T22:37:28.212Z,7.00
2018-09-16T22:39:55.301Z,6.87
2018-09-16T22:42:22.492Z,7.10
2018-09-16T22:44:50.057Z,6.97
2018-09-16T22:47:17.265Z,6.27
2018-09-16T22:49:44.360Z,6.80
2018-09-16T22:52:11.834Z,6.50
2018-09-16T22:54:39.056Z,6.97
2018-09-16T22:57:06.160Z,6.07
2018-09-16T22:59:33.489Z,7.10
2018-09-16T23:02:01.306Z,6.87
2018-09-16T23:04:28.423Z,6.57
2018-09-16T23:06:55.671Z,6.80
2018-09-16T23:09:22.797Z,6.30
2018-09-16T23:11:50.064Z,6.70
2018-09-16T23:14:17.438Z,6.43
2018-09-16T23:16:44.641Z,6.23
2018-09-16T23:19:11.740Z,7.07
2018-09-16T23:21:38.936Z,6.03
2018-09-16T23:24:06.117Z,7.00
2018-09-16T23:26:33.228Z,7.03
2018-09-16T23:29:00.355Z,6.80
2018-09-16T23:31:27.459Z,6.10
2018-09-16T23:33:54.575Z,7.23
2018-09-16T23:36:21.695Z,6.43
2018-09-16T23:38:48.768Z,6.87
2018-09-16T23:41:15.862Z,6.43
2018-09-16T23:43:43.439Z,6.27
2018-09-16T23:46:10.566Z,6.33
2018-09-16T23:48:37.696Z,6.60
2018-09-16T23:51:04.823Z,6.70
2018-09-16T23:53:32.348Z,6.20
2018-09-16T23:56:00.400Z,6.50
2018-09-16T23:58:27.851Z,6.57
